KPIE/PIE METAR and TAF weather

Enter ICAO airport designator
Station Type Date Time Source
KPIE METAR 2022/12/05 13:53 UTC NOAA

KPIE 051353Z 07005KT 10SM BKN075 21/19 A3012 RMK AO2 SLP198 T02110194


Station Type Date Time Source
KPIE Decoded METAR 2022/12/05 13:53 UTC NOAA

ST PETERSBURG/CLEARWATER, FL, United States (KPIE) 27-55N 82-41W 4M
Dec 05, 2022 - 08:53 AM EST / 2022.12.05 1353 UTC
Wind: from the ENE (070 degrees) at 6 MPH (5 KT):0
Visibility: 10 mile(s):0
Sky conditions: mostly cloudy
Temperature: 70.0 F (21.1 C)
Dew Point: 66.9 F (19.4 C)
Relative Humidity: 90%
Pressure (altimeter): 30.12 in. Hg (1019 hPa)
ob: KPIE 051353Z 07005KT 10SM BKN075 21/19 A3012 RMK AO2 SLP198 T02110194
cycle: 14

Station Type Date Time Source
KPIE TAF 2022/12/05 12:22 UTC NOAA

TAF KPIE 051120Z 0512/0612 VRB03KT 6SM BR FEW050 SCT250
FM051500 06004KT P6SM SCT040 SCT250
FM052000 30006KT P6SM SCT050 SCT250
FM060200 VRB03KT P6SM FEW040 SCT250

Example: see airport list